createdAt,value
2023-03-05T00:00:02.122Z,99778.69
2023-03-05T00:04:06.876Z,99781.31
2023-03-05T00:08:11.373Z,99784.78
2023-03-05T00:12:14.349Z,99778.69
2023-03-05T00:16:17.525Z,99780.41
2023-03-05T00:20:20.531Z,99781.31
2023-03-05T00:24:24.979Z,99782.06
2023-03-05T00:28:28.296Z,99777.72
2023-03-05T00:32:31.641Z,99775.03
2023-03-05T00:36:34.924Z,99768.91
2023-03-05T00:40:40.437Z,99762.84
2023-03-05T00:44:43.465Z,99764.56
2023-03-05T00:48:46.998Z,99763.69
2023-03-05T00:52:50.029Z,99754.16
2023-03-05T00:56:54.574Z,99756.69
2023-03-05T01:00:59.485Z,99745.38
2023-03-05T01:05:02.634Z,99739.22
2023-03-05T01:09:05.661Z,99739.28
2023-03-05T01:13:10.485Z,99740.97
2023-03-05T01:17:13.582Z,99731.47
2023-03-05T01:21:17.470Z,99731.53
2023-03-05T01:25:21.036Z,99730.66
2023-03-05T01:29:25.710Z,99728.00
2023-03-05T01:33:28.750Z,99721.94
2023-03-05T01:37:31.909Z,99721.06
2023-03-05T01:41:35.851Z,99725.34
2023-03-05T01:45:41.434Z,99713.16
2023-03-05T01:49:44.682Z,99721.84
2023-03-05T01:53:48.564Z,99717.59
2023-03-05T01:57:55.087Z,99721.94
2023-03-05T02:02:00.909Z,99714.94
2023-03-05T02:06:04.330Z,99710.59
2023-03-05T02:10:17.184Z,99717.59
2023-03-05T02:14:20.631Z,99715.03
2023-03-05T02:18:25.674Z,99705.50
2023-03-05T02:22:30.054Z,99708.06
2023-03-05T02:26:33.234Z,99699.31
2023-03-05T02:30:37.442Z,99703.59
2023-03-05T02:34:41.144Z,99698.53
2023-03-05T02:38:47.235Z,99691.59
2023-03-05T02:42:50.958Z,99688.16
2023-03-05T02:46:54.299Z,99688.22
2023-03-05T02:50:59.033Z,99686.44
2023-03-05T02:55:03.510Z,99683.69
2023-03-05T02:59:07.309Z,99679.44
2023-03-05T03:03:10.899Z,99684.63
2023-03-05T03:07:14.748Z,99674.28
2023-03-05T03:11:19.254Z,99666.38
2023-03-05T03:15:22.829Z,99657.75
2023-03-05T03:19:25.868Z,99659.53
2023-03-05T03:23:29.045Z,99650.81
2023-03-05T03:27:33.708Z,99655.97
2023-03-05T03:31:37.193Z,99652.44
2023-03-05T03:35:40.364Z,99651.56
2023-03-05T03:39:43.433Z,99654.22
2023-03-05T03:43:47.924Z,99650.75
2023-03-05T03:47:51.553Z,99655.06
2023-03-05T03:51:55.696Z,99662.09
2023-03-05T03:55:59.986Z,99651.81
2023-03-05T04:00:07.176Z,99653.56
2023-03-05T04:04:15.706Z,99656.25
2023-03-05T04:08:18.782Z,99654.47
2023-03-05T04:12:22.073Z,99647.50
2023-03-05T04:16:26.611Z,99638.69
2023-03-05T04:20:29.714Z,99645.56
2023-03-05T04:24:33.140Z,99645.66
2023-03-05T04:28:36.291Z,99629.16
2023-03-05T04:32:40.652Z,99635.22
2023-03-05T04:36:43.991Z,99635.13
2023-03-05T04:40:47.193Z,99631.63
2023-03-05T04:44:51.001Z,99617.78
2023-03-05T04:48:56.054Z,99624.72
2023-03-05T04:53:00.606Z,99625.53
2023-03-05T04:57:03.628Z,99623.75
2023-03-05T05:01:08.060Z,99612.56
2023-03-05T05:05:15.135Z,99622.13
2023-03-05T05:09:18.212Z,99619.50
2023-03-05T05:13:21.161Z,99612.66
2023-03-05T05:17:24.238Z,99610.06
2023-03-05T05:21:28.581Z,99606.63
2023-03-05T05:25:31.656Z,99602.28
2023-03-05T05:29:34.900Z,99600.56
2023-03-05T05:33:38.153Z,99611.94
2023-03-05T05:37:42.778Z,99614.56
2023-03-05T05:41:46.325Z,99627.69
2023-03-05T05:45:49.627Z,99623.41
2023-03-05T05:49:53.066Z,99622.53
2023-03-05T05:53:57.641Z,99613.97
2023-03-05T05:58:00.784Z,99616.59
2023-03-05T06:02:03.885Z,99622.72
2023-03-05T06:06:10.836Z,99629.72
2023-03-05T06:10:15.456Z,99625.41
2023-03-05T06:14:18.702Z,99622.84
2023-03-05T06:18:21.717Z,99622.81
2023-03-05T06:22:24.819Z,99623.72
2023-03-05T06:26:29.202Z,99621.03
2023-03-05T06:30:32.410Z,99625.41
2023-03-05T06:34:35.402Z,99621.03
2023-03-05T06:38:38.929Z,99626.38
2023-03-05T06:42:43.392Z,99623.94
2023-03-05T06:46:46.637Z,99614.41
2023-03-05T06:50:49.610Z,99612.69
2023-03-05T06:54:55.816Z,99607.53
2023-03-05T06:59:00.411Z,99611.84
2023-03-05T07:03:03.615Z,99614.41
2023-03-05T07:07:06.866Z,99611.84
2023-03-05T07:11:11.668Z,99620.50
2023-03-05T07:15:16.025Z,99618.81
2023-03-05T07:19:19.227Z,99610.19
2023-03-05T07:23:22.222Z,99612.00
2023-03-05T07:27:25.660Z,99613.78
2023-03-05T07:31:31.951Z,99609.53
2023-03-05T07:35:35.228Z,99614.81
2023-03-05T07:39:38.484Z,99602.75
2023-03-05T07:43:42.030Z,99601.13
2023-03-05T07:47:46.543Z,99602.97
2023-03-05T07:51:49.577Z,99604.78
2023-03-05T07:55:52.598Z,99604.00
2023-03-05T07:59:55.833Z,99602.25
2023-03-05T08:04:00.355Z,99603.22
2023-03-05T08:08:03.676Z,99601.44
2023-03-05T08:12:07.137Z,99598.75
2023-03-05T08:16:13.834Z,99586.75
2023-03-05T08:20:19.263Z,99584.22
2023-03-05T08:24:23.425Z,99587.81
2023-03-05T08:28:26.418Z,99587.84
2023-03-05T08:32:29.571Z,99585.25
2023-03-05T08:36:34.165Z,99585.44
2023-03-05T08:40:37.621Z,99589.91
2023-03-05T08:44:40.703Z,99588.19
2023-03-05T08:48:44.061Z,99580.50
2023-03-05T08:52:48.503Z,99581.44
2023-03-05T08:56:51.599Z,99579.78
2023-03-05T09:00:54.689Z,99575.53
2023-03-05T09:04:57.732Z,99579.91
2023-03-05T09:09:02.116Z,99568.63
2023-03-05T09:13:05.189Z,99575.59
2023-03-05T09:17:09.918Z,99571.34
2023-03-05T09:21:16.076Z,99572.50
2023-03-05T09:25:20.653Z,99565.72
2023-03-05T09:29:23.710Z,99558.09
2023-03-05T09:33:26.714Z,99555.78
2023-03-05T09:37:30.078Z,99555.16
2023-03-05T09:41:49.003Z,99550.91
2023-03-05T09:46:07.381Z,99549.31
2023-03-05T09:50:20.656Z,99547.75
2023-03-05T09:54:30.270Z,99544.44
2023-03-05T09:58:38.407Z,99547.19
2023-03-05T10:02:49.076Z,99534.25
2023-03-05T10:06:56.796Z,99540.47
2023-03-05T10:11:03.718Z,99526.63
2023-03-05T10:15:14.024Z,99535.41
2023-03-05T10:19:38.085Z,99532.84
2023-03-05T10:24:04.420Z,99518.22
2023-03-05T10:28:17.842Z,99519.13
2023-03-05T10:32:37.148Z,99508.56
2023-03-05T10:36:57.140Z,99506.81
2023-03-05T10:41:08.871Z,99507.78
2023-03-05T10:45:16.475Z,99500.88
2023-03-05T10:49:23.749Z,99497.41
2023-03-05T10:53:29.924Z,99488.78
2023-03-05T10:57:33.383Z,99491.56
2023-03-05T11:01:37.468Z,99479.38
2023-03-05T11:05:47.934Z,99475.03
2023-03-05T11:10:05.796Z,99476.78
2023-03-05T11:14:29.975Z,99475.84
2023-03-05T11:18:35.371Z,99469.69
2023-03-05T11:22:39.865Z,99458.28
2023-03-05T11:26:51.655Z,99458.25
2023-03-05T11:31:03.832Z,99445.94
2023-03-05T11:35:30.449Z,99449.44
2023-03-05T11:39:38.411Z,99444.16
2023-03-05T11:43:43.260Z,99438.03
2023-03-05T11:47:50.082Z,99432.75
2023-03-05T11:52:01.293Z,99433.56
2023-03-05T11:56:17.470Z,99433.50
2023-03-05T12:00:28.515Z,99440.34
2023-03-05T12:04:38.785Z,99435.97
2023-03-05T12:08:45.737Z,99433.47
2023-03-05T12:12:56.642Z,99431.59
2023-03-05T12:17:05.898Z,99435.03
2023-03-05T12:21:16.407Z,99442.03
2023-03-05T12:25:29.972Z,99429.69
2023-03-05T12:29:41.240Z,99431.31
2023-03-05T12:33:45.327Z,99424.19
2023-03-05T12:38:29.529Z,99426.72
2023-03-05T12:42:53.796Z,99423.06
2023-03-05T12:47:23.536Z,99423.00
2023-03-05T12:51:36.084Z,99413.31
2023-03-05T12:55:46.850Z,99413.25
2023-03-05T12:59:54.688Z,99418.38
2023-03-05T13:04:04.236Z,99414.81
2023-03-05T13:08:14.849Z,99416.63
2023-03-05T13:12:19.075Z,99410.44
2023-03-05T13:16:25.255Z,99413.19
2023-03-05T13:20:37.712Z,99411.28
2023-03-05T13:24:40.972Z,99406.16
2023-03-05T13:28:45.426Z,99404.34
2023-03-05T13:32:52.000Z,99413.00
2023-03-05T13:37:00.917Z,99404.34
2023-03-05T13:41:20.150Z,99395.53
2023-03-05T13:45:26.461Z,99402.63
2023-03-05T13:49:29.963Z,99397.41
2023-03-05T13:53:35.107Z,99389.66
2023-03-05T13:57:40.293Z,99382.72
2023-03-05T14:01:45.432Z,99385.38
2023-03-05T14:05:49.977Z,99381.91
2023-03-05T14:09:56.682Z,99374.94
2023-03-05T14:14:06.630Z,99368.88
2023-03-05T14:18:19.685Z,99355.00
2023-03-05T14:22:33.908Z,99348.91
2023-03-05T14:26:41.264Z,99348.91
2023-03-05T14:30:47.219Z,99346.22
2023-03-05T14:34:54.871Z,99349.66
2023-03-05T14:38:58.461Z,99350.63
2023-03-05T14:43:04.149Z,99348.09
2023-03-05T14:47:07.988Z,99335.91
2023-03-05T14:51:12.618Z,99335.06
2023-03-05T14:55:16.888Z,99335.91
2023-03-05T14:59:22.160Z,99338.47
2023-03-05T15:03:26.308Z,99334.19
2023-03-05T15:07:32.438Z,99319.38
2023-03-05T15:11:35.725Z,99320.28
2023-03-05T15:15:40.806Z,99321.16
2023-03-05T15:19:43.893Z,99315.91
2023-03-05T15:23:46.875Z,99314.25
2023-03-05T15:27:51.048Z,99310.84
2023-03-05T15:31:55.651Z,99310.88
2023-03-05T15:35:59.538Z,99308.19
2023-03-05T15:40:03.025Z,99309.91
2023-03-05T15:44:06.405Z,99312.56
2023-03-05T15:48:11.028Z,99295.97
2023-03-05T15:52:14.353Z,99302.88
2023-03-05T15:56:18.001Z,99297.59
2023-03-05T16:00:25.804Z,99302.84
2023-03-05T16:04:30.896Z,99300.16
2023-03-05T16:08:36.419Z,99298.44
2023-03-05T16:12:42.995Z,99295.81
2023-03-05T16:16:46.243Z,99300.16
2023-03-05T16:20:50.857Z,99297.53
2023-03-05T16:24:53.896Z,99296.66
2023-03-05T16:28:57.005Z,99296.66
2023-03-05T16:33:00.230Z,99300.97
2023-03-05T16:37:06.883Z,99295.78
2023-03-05T16:41:09.934Z,99289.66
2023-03-05T16:45:13.345Z,99298.34
2023-03-05T16:49:17.046Z,99297.53
2023-03-05T16:53:21.447Z,99303.56
2023-03-05T16:57:25.743Z,99300.88
2023-03-05T17:01:30.266Z,99307.03
2023-03-05T17:05:36.178Z,99298.31
2023-03-05T17:09:40.995Z,99295.66
2023-03-05T17:13:46.496Z,99299.22
2023-03-05T17:17:51.568Z,99295.66
2023-03-05T17:21:54.651Z,99306.94
2023-03-05T17:25:59.113Z,99305.91
2023-03-05T17:30:02.467Z,99304.94
2023-03-05T17:34:05.677Z,99312.84
2023-03-05T17:38:10.923Z,99311.22
2023-03-05T17:42:15.770Z,99306.13
2023-03-05T17:46:18.894Z,99298.25
2023-03-05T17:50:22.489Z,99300.91
2023-03-05T17:54:29.279Z,99301.88
2023-03-05T17:58:33.876Z,99306.31
2023-03-05T18:02:36.981Z,99320.25
2023-03-05T18:06:39.968Z,99317.63
2023-03-05T18:10:43.031Z,99314.16
2023-03-05T18:14:47.368Z,99316.75
2023-03-05T18:18:50.454Z,99307.13
2023-03-05T18:22:53.942Z,99307.09
2023-03-05T18:26:56.996Z,99303.72
2023-03-05T18:31:02.637Z,99304.59
2023-03-05T18:35:08.102Z,99300.28
2023-03-05T18:39:16.073Z,99296.00
2023-03-05T18:43:20.757Z,99290.78
2023-03-05T18:47:25.112Z,99291.59
2023-03-05T18:51:29.593Z,99296.94
2023-03-05T18:55:32.618Z,99299.59
2023-03-05T18:59:36.690Z,99293.53
2023-03-05T19:03:41.075Z,99287.47
2023-03-05T19:07:44.965Z,99280.59
2023-03-05T19:11:48.671Z,99285.00
2023-03-05T19:15:51.777Z,99281.56
2023-03-05T19:19:58.864Z,99280.72
2023-03-05T19:24:01.923Z,99274.63
2023-03-05T19:28:05.005Z,99281.59
2023-03-05T19:32:09.778Z,99292.88
2023-03-05T19:36:14.460Z,99282.41
2023-03-05T19:40:18.803Z,99277.19
2023-03-05T19:44:21.867Z,99278.00
2023-03-05T19:48:24.978Z,99277.97
2023-03-05T19:52:29.393Z,99273.63
2023-03-05T19:56:32.466Z,99274.50
2023-03-05T20:00:35.657Z,99275.34
2023-03-05T20:04:38.733Z,99273.59
2023-03-05T20:08:43.832Z,99276.22
2023-03-05T20:12:48.182Z,99278.00
2023-03-05T20:16:51.683Z,99279.81
2023-03-05T20:20:57.977Z,99269.31
2023-03-05T20:25:02.302Z,99268.41
2023-03-05T20:29:06.050Z,99257.88
2023-03-05T20:33:09.227Z,99265.63
2023-03-05T20:37:12.293Z,99263.03
2023-03-05T20:41:18.578Z,99270.00
2023-03-05T20:45:21.688Z,99267.41
2023-03-05T20:49:24.672Z,99254.38
2023-03-05T20:53:27.793Z,99257.03
2023-03-05T20:57:32.608Z,99257.91
2023-03-05T21:01:38.126Z,99259.63
2023-03-05T21:05:41.158Z,99245.66
2023-03-05T21:09:44.246Z,99243.06
2023-03-05T21:13:48.806Z,99239.50
2023-03-05T21:17:55.142Z,99242.13
2023-03-05T21:21:58.189Z,99238.66
2023-03-05T21:26:02.085Z,99228.22
2023-03-05T21:30:07.654Z,99232.59
2023-03-05T21:34:10.870Z,99223.00
2023-03-05T21:38:14.750Z,99219.53
2023-03-05T21:42:17.900Z,99227.38
2023-03-05T21:46:22.263Z,99225.59
2023-03-05T21:50:26.531Z,99225.56
2023-03-05T21:54:29.542Z,99215.09
2023-03-05T21:58:34.256Z,99211.59
2023-03-05T22:02:39.364Z,99198.53
2023-03-05T22:06:42.460Z,99202.88
2023-03-05T22:10:45.485Z,99199.38
2023-03-05T22:14:48.537Z,99194.16
2023-03-05T22:18:53.687Z,99200.25
2023-03-05T22:22:56.740Z,99204.56
2023-03-05T22:26:59.706Z,99198.47
2023-03-05T22:31:03.296Z,99195.84
2023-03-05T22:35:12.220Z,99194.91
2023-03-05T22:39:15.228Z,99188.78
2023-03-05T22:43:19.376Z,99187.06
2023-03-05T22:47:22.442Z,99181.84
2023-03-05T22:51:26.815Z,99176.63
2023-03-05T22:55:29.969Z,99178.34
2023-03-05T22:59:32.951Z,99170.50
2023-03-05T23:03:36.203Z,99171.34
2023-03-05T23:07:42.104Z,99170.44
2023-03-05T23:11:45.251Z,99167.81
2023-03-05T23:15:48.304Z,99164.31
2023-03-05T23:19:51.410Z,99164.31
2023-03-05T23:23:57.638Z,99155.56
2023-03-05T23:28:01.383Z,99156.34
2023-03-05T23:32:04.585Z,99150.13
2023-03-05T23:36:08.064Z,99150.09
2023-03-05T23:40:17.004Z,99154.38
2023-03-05T23:44:20.300Z,99156.06
2023-03-05T23:48:24.304Z,99156.91
2023-03-05T23:52:27.367Z,99151.69
2023-03-05T23:56:32.463Z,99144.69
